KWRI

Mc Guire Field (Joint Base Mc Guire Dix Lakehurst) Airport

Wrightstown, New Jersey, USA
TAF KWRI 171000Z 1710/1816 21006KT 9999 FEW040 SCT200 QNH3004INS BECMG 1714/1715 19012KT 9999 SCT040 SCT200 QNH2992INS BECMG 1721/1722 20009KT 8000 -SHRA BKN040 QNH2987INS TEMPO 1800/1804 21015G20KT 6000 -TSRA BKN035CB BECMG 1807/1808 23009KT 9999 NSW OVC020 QNH2997INS TX32/1718Z TN21/1710Z
Issued Valid From Valid To
Aug-17 @ 10:00 UTC
(5 hours ago)
Aug-17 @ 10:00 UTC
(5 hours ago)
Aug-18 @ 16:00 UTC
(-1 days ago)
Expired Click to View Aug-17 @ 10:00 to Aug-17 @ 14:00
TAF KWRI 171000Z 1710/1816 21006KT 9999 FEW040 SCT200 QNH3004INS
Wind Visibility Clouds Readings
210° at 6 knots Greater than 6 miles
  • Few at 4,000' AGL
  • Scattered at 20,000' AGL
Altimeter 30.03" Hg
Pressure 1017 hPa
Becoming Aug-17 @ 14:00 to Aug-17 @ 21:00
BECMG 1714/1715 19012KT 9999 SCT040 SCT200 QNH2992INS
Wind Visibility Clouds Readings
190° at 12 knots Greater than 6 miles
  • Scattered at 4,000' AGL
  • Scattered at 20,000' AGL
Altimeter 29.91" Hg
Pressure 1013 hPa
Becoming Aug-17 @ 21:00 to Aug-18 @ 07:00
BECMG 1721/1722 20009KT 8000 -SHRA BKN040 QNH2987INS
Wind Visibility Clouds Conditions Readings
200° at 9 knots 41/97 miles
  • Broken at 4,000' AGL
  • Light Rain
Altimeter 29.88" Hg
Pressure 1012 hPa
Temporary Aug-18 @ 00:00 to Aug-18 @ 04:00
TEMPO 1800/1804 21015G20KT 6000 -TSRA BKN035CB
Wind Visibility Clouds Conditions
210° at 15 knots
 Gusting to 20 knots
31/73 miles
  • Broken at 3,500' AGL
  • Light Thunderstorm
  • Light Rain
Becoming Aug-18 @ 07:00 to Aug-18 @ 16:00
BECMG 1807/1808 23009KT 9999 NSW OVC020 QNH2997INS TX32/1718Z TN21/1710Z
Wind Visibility Clouds Conditions Readings
230° at 9 knots Greater than 6 miles
  • Overcast at 2,000' AGL
Altimeter 29.97" Hg
Pressure 1015 hPa
TAF KWRI 171000Z 1710/1816 21006KT 9999 FEW040 SCT200 QNH3004INS BECMG 1714/1715 19012KT 9999 SCT040 SCT200 QNH2992INS BECMG 1721/1722 20009KT 8000 -SHRA BKN040 QNH2987INS TEMPO 1800/1804 21015G20KT 6000 -TSRA BKN035CB BECMG 1807/1808 23009KT 9999 NSW OVC020 QNH2997INS TX32/1718Z TN21/1710Z
Issued Aug-17 @ 10:00 UTC
(5 hours ago)
Valid From Aug-17 @ 10:00 UTC
(5 hours ago)
Valid To Aug-18 @ 16:00 UTC
(-1 days ago)
Aug-17 @ 10:00 - Aug-17 @ 14:00
Wind Visibility
210° at 6 knots Greater than 6 miles
Clouds
  • Few at 4,000' AGL
  • Scattered at 20,000' AGL
Becoming Aug-17 @ 14:00 - Aug-17 @ 21:00
Wind Visibility
190° at 12 knots Greater than 6 miles
Clouds
  • Scattered at 4,000' AGL
  • Scattered at 20,000' AGL
Becoming Aug-17 @ 21:00 - Aug-18 @ 07:00
Wind Visibility
200° at 9 knots 41/97 miles
Clouds
  • Broken at 4,000' AGL
Conditions
  • Light Rain
Temporary Aug-18 @ 00:00 - Aug-18 @ 04:00
Wind Visibility
210° at 15 knots
 Gusting to 20 knots
31/73 miles
Clouds
  • Broken at 3,500' AGL
Conditions
  • Light Thunderstorm
  • Light Rain
Becoming Aug-18 @ 07:00 - Aug-18 @ 16:00
Wind Visibility
230° at 9 knots Greater than 6 miles
Clouds
  • Overcast at 2,000' AGL
Conditions